sensor_id;sensor_type;location;lat;lon;timestamp;pressure;altitude;pressure_sealevel;temperature;humidity
74232;BME280;62590;52.430;4.902;2022-09-13T00:00:52;100813.06;;;18.73;68.14
74232;BME280;62590;52.430;4.902;2022-09-13T00:03:18;100812.50;;;18.49;68.12
74232;BME280;62590;52.430;4.902;2022-09-13T00:05:44;100799.47;;;18.73;68.14
74232;BME280;62590;52.430;4.902;2022-09-13T00:08:10;100789.75;;;19.00;68.16
74232;BME280;62590;52.430;4.902;2022-09-13T00:10:37;100795.34;;;19.13;68.18
74232;BME280;62590;52.430;4.902;2022-09-13T00:13:04;100804.06;;;19.08;68.18
74232;BME280;62590;52.430;4.902;2022-09-13T00:15:30;100809.66;;;18.86;68.15
74232;BME280;62590;52.430;4.902;2022-09-13T00:17:55;100820.25;;;18.81;68.16
74232;BME280;62590;52.430;4.902;2022-09-13T00:20:21;100813.59;;;18.69;68.14
74232;BME280;62590;52.430;4.902;2022-09-13T00:22:46;100802.44;;;18.78;68.15
74232;BME280;62590;52.430;4.902;2022-09-13T00:25:12;100799.56;;;18.65;68.13
74232;BME280;62590;52.430;4.902;2022-09-13T00:27:37;100794.09;;;18.80;68.15
74232;BME280;62590;52.430;4.902;2022-09-13T00:30:04;100780.31;;;18.81;68.15
74232;BME280;62590;52.430;4.902;2022-09-13T00:32:30;100779.19;;;18.90;68.16
74232;BME280;62590;52.430;4.902;2022-09-13T00:34:56;100775.88;;;18.95;68.17
74232;BME280;62590;52.430;4.902;2022-09-13T00:37:21;100782.56;;;18.92;68.16
74232;BME280;62590;52.430;4.902;2022-09-13T00:39:47;100780.88;;;18.77;68.15
74232;BME280;62590;52.430;4.902;2022-09-13T00:42:13;100776.66;;;18.89;68.16
74232;BME280;62590;52.430;4.902;2022-09-13T00:47:14;100773.44;;;18.85;68.15
74232;BME280;62590;52.430;4.902;2022-09-13T00:49:44;100774.78;;;18.75;68.15
74232;BME280;62590;52.430;4.902;2022-09-13T00:52:14;100773.00;;;18.82;68.16
74232;BME280;62590;52.430;4.902;2022-09-13T00:54:46;100772.06;;;18.75;68.15
74232;BME280;62590;52.430;4.902;2022-09-13T00:57:15;100780.69;;;18.78;68.15
74232;BME280;62590;52.430;4.902;2022-09-13T00:59:46;100774.03;;;18.81;68.16
74232;BME280;62590;52.430;4.902;2022-09-13T01:02:13;100770.88;;;18.77;68.15
74232;BME280;62590;52.430;4.902;2022-09-13T01:04:39;100768.72;;;18.73;68.13
74232;BME280;62590;52.430;4.902;2022-09-13T01:07:07;100769.75;;;18.72;68.13
74232;BME280;62590;52.430;4.902;2022-09-13T01:09:38;100767.84;;;18.72;68.15
74232;BME280;62590;52.430;4.902;2022-09-13T01:12:24;100766.38;;;18.70;68.15
74232;BME280;62590;52.430;4.902;2022-09-13T01:14:56;100761.97;;;18.69;68.14
74232;BME280;62590;52.430;4.902;2022-09-13T01:17:23;100763.09;;;18.60;68.14
74232;BME280;62590;52.430;4.902;2022-09-13T01:19:49;100758.59;;;18.67;68.14
74232;BME280;62590;52.430;4.902;2022-09-13T01:30:24;100763.09;;;18.60;68.13
74232;BME280;62590;52.430;4.902;2022-09-13T01:33:15;100760.97;;;18.55;68.14
74232;BME280;62590;52.430;4.902;2022-09-13T01:36:00;100743.88;;;18.61;68.13
74232;BME280;62590;52.430;4.902;2022-09-13T01:41:22;100749.31;;;18.61;68.14
74232;BME280;62590;52.430;4.902;2022-09-13T01:44:23;100742.22;;;18.60;68.14
74232;BME280;62590;52.430;4.902;2022-09-13T01:50:11;100743.25;;;18.59;68.13
74232;BME280;62590;52.430;4.902;2022-09-13T02:00:23;100744.94;;;18.60;68.13
74232;BME280;62590;52.430;4.902;2022-09-13T02:02:49;100744.28;;;18.58;68.14
74232;BME280;62590;52.430;4.902;2022-09-13T02:05:26;100753.47;;;18.57;68.14
74232;BME280;62590;52.430;4.902;2022-09-13T02:07:59;100753.28;;;18.59;68.13
74232;BME280;62590;52.430;4.902;2022-09-13T02:10:41;100752.81;;;18.55;68.13
74232;BME280;62590;52.430;4.902;2022-09-13T02:13:14;100748.88;;;18.58;68.13
74232;BME280;62590;52.430;4.902;2022-09-13T02:15:47;100733.16;;;18.53;68.12
74232;BME280;62590;52.430;4.902;2022-09-13T02:20:51;100732.31;;;18.53;68.13
74232;BME280;62590;52.430;4.902;2022-09-13T02:23:23;100730.13;;;18.48;68.13
74232;BME280;62590;52.430;4.902;2022-09-13T02:25:51;100734.16;;;18.52;68.12
74232;BME280;62590;52.430;4.902;2022-09-13T02:28:25;100738.38;;;18.55;68.14
74232;BME280;62590;52.430;4.902;2022-09-13T02:30:53;100732.94;;;18.55;68.13
74232;BME280;62590;52.430;4.902;2022-09-13T02:33:27;100736.06;;;18.52;68.13
74232;BME280;62590;52.430;4.902;2022-09-13T02:36:08;100735.66;;;18.55;68.11
74232;BME280;62590;52.430;4.902;2022-09-13T02:41:16;100733.50;;;18.50;68.13
74232;BME280;62590;52.430;4.902;2022-09-13T02:43:49;100739.81;;;18.51;68.13
74232;BME280;62590;52.430;4.902;2022-09-13T02:51:56;100739.53;;;18.31;68.11
74232;BME280;62590;52.430;4.902;2022-09-13T02:54:37;100741.78;;;18.42;68.12
74232;BME280;62590;52.430;4.902;2022-09-13T02:57:21;100741.31;;;18.38;68.12
74232;BME280;62590;52.430;4.902;2022-09-13T02:59:51;100735.97;;;18.45;68.13
74232;BME280;62590;52.430;4.902;2022-09-13T03:02:18;100743.56;;;18.50;68.13
74232;BME280;62590;52.430;4.902;2022-09-13T03:04:45;100754.59;;;18.48;68.13
74232;BME280;62590;52.430;4.902;2022-09-13T03:07:12;100751.13;;;18.39;68.11
74232;BME280;62590;52.430;4.902;2022-09-13T03:09:44;100747.88;;;18.44;68.13
74232;BME280;62590;52.430;4.902;2022-09-13T03:12:38;100741.41;;;18.45;68.12
74232;BME280;62590;52.430;4.902;2022-09-13T03:26:09;100735.03;;;18.23;68.11
74232;BME280;62590;52.430;4.902;2022-09-13T03:31:34;100734.94;;;18.17;68.10
74232;BME280;62590;52.430;4.902;2022-09-13T03:36:47;100739.44;;;18.24;68.11
74232;BME280;62590;52.430;4.902;2022-09-13T03:41:59;100734.00;;;18.10;68.10
74232;BME280;62590;52.430;4.902;2022-09-13T03:44:28;100734.41;;;18.07;68.11
74232;BME280;62590;52.430;4.902;2022-09-13T03:46:57;100742.22;;;18.02;68.09
74232;BME280;62590;52.430;4.902;2022-09-13T03:49:25;100738.31;;;18.04;68.09
74232;BME280;62590;52.430;4.902;2022-09-13T03:51:52;100738.84;;;18.00;68.10
74232;BME280;62590;52.430;4.902;2022-09-13T03:54:22;100748.25;;;17.97;68.08
74232;BME280;62590;52.430;4.902;2022-09-13T03:59:47;100741.09;;;17.96;68.08
74232;BME280;62590;52.430;4.902;2022-09-13T04:02:14;100745.81;;;18.02;68.10
74232;BME280;62590;52.430;4.902;2022-09-13T04:04:41;100743.94;;;18.03;68.09
74232;BME280;62590;52.430;4.902;2022-09-13T04:07:08;100750.84;;;17.91;68.08
74232;BME280;62590;52.430;4.902;2022-09-13T04:09:34;100749.44;;;17.80;68.08
74232;BME280;62590;52.430;4.902;2022-09-13T04:11:59;100742.78;;;17.83;68.08
74232;BME280;62590;52.430;4.902;2022-09-13T04:14:25;100741.03;;;17.90;68.09
74232;BME280;62590;52.430;4.902;2022-09-13T04:16:55;100742.69;;;17.91;68.09
74232;BME280;62590;52.430;4.902;2022-09-13T04:19:21;100749.44;;;17.80;68.08
74232;BME280;62590;52.430;4.902;2022-09-13T04:21:48;100755.06;;;17.79;68.08
74232;BME280;62590;52.430;4.902;2022-09-13T04:24:14;100753.16;;;17.79;68.09
74232;BME280;62590;52.430;4.902;2022-09-13T04:26:40;100750.66;;;17.78;68.07
74232;BME280;62590;52.430;4.902;2022-09-13T04:29:05;100749.53;;;17.87;68.09
74232;BME280;62590;52.430;4.902;2022-09-13T04:31:31;100749.25;;;17.82;68.08
74232;BME280;62590;52.430;4.902;2022-09-13T04:33:56;100754.59;;;17.90;68.08
74232;BME280;62590;52.430;4.902;2022-09-13T04:36:22;100761.03;;;17.89;68.08
74232;BME280;62590;52.430;4.902;2022-09-13T04:38:48;100759.38;;;17.88;68.09
74232;BME280;62590;52.430;4.902;2022-09-13T04:41:13;100757.19;;;17.83;68.08
74232;BME280;62590;52.430;4.902;2022-09-13T04:43:39;100762.34;;;17.78;68.08
74232;BME280;62590;52.430;4.902;2022-09-13T04:46:05;100757.94;;;17.77;68.08
74232;BME280;62590;52.430;4.902;2022-09-13T04:48:30;100759.91;;;17.83;68.08
74232;BME280;62590;52.430;4.902;2022-09-13T04:51:03;100757.66;;;17.87;68.09
74232;BME280;62590;52.430;4.902;2022-09-13T04:53:29;100761.78;;;17.83;68.07
74232;BME280;62590;52.430;4.902;2022-09-13T04:56:02;100769.91;;;17.68;68.08
74232;BME280;62590;52.430;4.902;2022-09-13T04:58:27;100767.56;;;17.65;68.07
74232;BME280;62590;52.430;4.902;2022-09-13T05:00:53;100772.50;;;17.39;68.06
74232;BME280;62590;52.430;4.902;2022-09-13T05:03:21;100784.50;;;17.44;68.06
74232;BME280;62590;52.430;4.902;2022-09-13T05:05:47;100781.31;;;17.41;68.06
74232;BME280;62590;52.430;4.902;2022-09-13T05:08:12;100786.34;;;17.52;68.07
74232;BME280;62590;52.430;4.902;2022-09-13T05:10:37;100787.03;;;17.46;68.06
74232;BME280;62590;52.430;4.902;2022-09-13T05:13:03;100787.59;;;17.41;68.05
74232;BME280;62590;52.430;4.902;2022-09-13T05:15:28;100787.94;;;17.38;68.05
74232;BME280;62590;52.430;4.902;2022-09-13T05:17:53;100789.25;;;17.42;68.05
74232;BME280;62590;52.430;4.902;2022-09-13T05:20:19;100801.31;;;17.40;68.06
74232;BME280;62590;52.430;4.902;2022-09-13T05:22:45;100804.41;;;17.37;68.03
74232;BME280;62590;52.430;4.902;2022-09-13T05:25:10;100802.31;;;17.24;68.04
74232;BME280;62590;52.430;4.902;2022-09-13T05:27:36;100803.19;;;17.17;68.04
74232;BME280;62590;52.430;4.902;2022-09-13T05:30:01;100802.72;;;17.13;68.02
74232;BME280;62590;52.430;4.902;2022-09-13T05:32:27;100796.41;;;17.21;68.03
74232;BME280;62590;52.430;4.902;2022-09-13T05:34:54;100802.47;;;17.23;68.04
74232;BME280;62590;52.430;4.902;2022-09-13T05:37:20;100808.38;;;17.26;68.05
74232;BME280;62590;52.430;4.902;2022-09-13T05:39:45;100816.91;;;17.38;68.05
74232;BME280;62590;52.430;4.902;2022-09-13T05:42:10;100812.91;;;17.11;68.03
74232;BME280;62590;52.430;4.902;2022-09-13T05:44:35;100814.09;;;17.31;68.05
74232;BME280;62590;52.430;4.902;2022-09-13T05:47:01;100819.31;;;17.10;68.04
74232;BME280;62590;52.430;4.902;2022-09-13T05:49:26;100817.59;;;17.17;68.02
74232;BME280;62590;52.430;4.902;2022-09-13T05:51:52;100826.00;;;17.00;68.02
74232;BME280;62590;52.430;4.902;2022-09-13T05:54:17;100827.03;;;17.21;68.04
74232;BME280;62590;52.430;4.902;2022-09-13T05:56:42;100838.16;;;17.34;68.05
74232;BME280;62590;52.430;4.902;2022-09-13T05:59:11;100833.47;;;17.28;68.04
74232;BME280;62590;52.430;4.902;2022-09-13T06:01:37;100828.44;;;17.40;68.05
74232;BME280;62590;52.430;4.902;2022-09-13T06:04:03;100834.28;;;17.29;68.04
74232;BME280;62590;52.430;4.902;2022-09-13T06:06:28;100831.72;;;17.35;68.04
74232;BME280;62590;52.430;4.902;2022-09-13T06:08:55;100833.97;;;17.55;68.06
74232;BME280;62590;52.430;4.902;2022-09-13T06:11:21;100837.88;;;17.52;68.07
74232;BME280;62590;52.430;4.902;2022-09-13T06:13:47;100844.13;;;17.30;68.05
74232;BME280;62590;52.430;4.902;2022-09-13T06:16:13;100843.66;;;17.26;68.03
74232;BME280;62590;52.430;4.902;2022-09-13T06:18:40;100842.66;;;17.19;68.04
74232;BME280;62590;52.430;4.902;2022-09-13T06:21:13;100840.81;;;17.12;68.03
74232;BME280;62590;52.430;4.902;2022-09-13T06:23:52;100846.25;;;17.12;68.02
74232;BME280;62590;52.430;4.902;2022-09-13T06:26:23;100841.22;;;17.31;68.05
74232;BME280;62590;52.430;4.902;2022-09-13T06:28:53;100838.69;;;17.30;68.05
74232;BME280;62590;52.430;4.902;2022-09-13T06:31:21;100838.16;;;17.34;68.05
74232;BME280;62590;52.430;4.902;2022-09-13T06:33:47;100838.50;;;17.31;68.05
74232;BME280;62590;52.430;4.902;2022-09-13T06:36:17;100843.91;;;17.39;68.05
74232;BME280;62590;52.430;4.902;2022-09-13T06:38:44;100838.91;;;17.51;68.05
74232;BME280;62590;52.430;4.902;2022-09-13T06:41:12;100830.41;;;17.54;68.06
74232;BME280;62590;52.430;4.902;2022-09-13T06:43:38;100824.69;;;17.49;68.06
74232;BME280;62590;52.430;4.902;2022-09-13T06:48:31;100828.72;;;17.30;68.03
74232;BME280;62590;52.430;4.902;2022-09-13T06:50:58;100830.84;;;17.35;68.05
74232;BME280;62590;52.430;4.902;2022-09-13T06:53:24;100831.22;;;17.32;68.05
74232;BME280;62590;52.430;4.902;2022-09-13T06:56:11;100834.53;;;17.42;68.05
74232;BME280;62590;52.430;4.902;2022-09-13T06:58:38;100833.66;;;17.50;68.05
74232;BME280;62590;52.430;4.902;2022-09-13T07:01:14;100827.47;;;17.33;68.05
74232;BME280;62590;52.430;4.902;2022-09-13T07:03:51;100829.50;;;17.62;68.06
74232;BME280;62590;52.430;4.902;2022-09-13T07:06:22;100832.69;;;17.65;68.07
74232;BME280;62590;52.430;4.902;2022-09-13T07:08:49;100826.88;;;17.45;68.05
74232;BME280;62590;52.430;4.902;2022-09-13T07:11:17;100835.38;;;17.42;68.05
74232;BME280;62590;52.430;4.902;2022-09-13T07:13:47;100829.28;;;17.40;68.04
74232;BME280;62590;52.430;4.902;2022-09-13T07:16:13;100827.72;;;17.46;68.06
74232;BME280;62590;52.430;4.902;2022-09-13T07:18:39;100828.56;;;17.47;68.06
74232;BME280;62590;52.430;4.902;2022-09-13T07:21:07;100831.97;;;17.71;68.09
74232;BME280;62590;52.430;4.902;2022-09-13T07:23:34;100828.34;;;17.79;68.08
74232;BME280;62590;52.430;4.902;2022-09-13T07:26:00;100830.84;;;17.66;68.07
74232;BME280;62590;52.430;4.902;2022-09-13T07:28:34;100832.72;;;17.80;68.08
74232;BME280;62590;52.430;4.902;2022-09-13T07:31:22;100827.38;;;17.72;68.07
74232;BME280;62590;52.430;4.902;2022-09-13T07:33:53;100833.84;;;17.71;68.07
74232;BME280;62590;52.430;4.902;2022-09-13T07:36:19;100824.06;;;17.62;68.07
74232;BME280;62590;52.430;4.902;2022-09-13T07:38:44;100833.06;;;17.62;68.07
74232;BME280;62590;52.430;4.902;2022-09-13T07:41:12;100833.88;;;17.63;68.06
74232;BME280;62590;52.430;4.902;2022-09-13T07:43:38;100830.88;;;17.80;68.08
74232;BME280;62590;52.430;4.902;2022-09-13T07:46:10;100832.34;;;17.83;68.07
74232;BME280;62590;52.430;4.902;2022-09-13T07:48:40;100830.91;;;17.95;68.08
74232;BME280;62590;52.430;4.902;2022-09-13T07:51:15;100838.31;;;18.01;68.08
74232;BME280;62590;52.430;4.902;2022-09-13T07:53:42;100838.34;;;17.78;68.08
74232;BME280;62590;52.430;4.902;2022-09-13T07:56:09;100844.00;;;17.91;68.08
74232;BME280;62590;52.430;4.902;2022-09-13T07:58:36;100849.91;;;17.95;68.08
74232;BME280;62590;52.430;4.902;2022-09-13T08:01:19;100852.16;;;18.06;68.11
74232;BME280;62590;52.430;4.902;2022-09-13T08:03:56;100859.78;;;17.73;68.07
74232;BME280;62590;52.430;4.902;2022-09-13T08:06:22;100851.41;;;17.97;68.09
74232;BME280;62590;52.430;4.902;2022-09-13T08:08:49;100855.94;;;18.05;68.10
74232;BME280;62590;52.430;4.902;2022-09-13T08:11:39;100857.00;;;17.96;68.09
74232;BME280;62590;52.430;4.902;2022-09-13T08:14:07;100865.94;;;18.04;68.10
74232;BME280;62590;52.430;4.902;2022-09-13T08:16:33;100865.47;;;18.01;68.10
74232;BME280;62590;52.430;4.902;2022-09-13T08:19:01;100864.28;;;18.18;68.10
74232;BME280;62590;52.430;4.902;2022-09-13T08:21:31;100869.59;;;18.26;68.12
74232;BME280;62590;52.430;4.902;2022-09-13T08:23:57;100863.78;;;18.14;68.10
74232;BME280;62590;52.430;4.902;2022-09-13T08:26:28;100868.78;;;18.25;68.12
74232;BME280;62590;52.430;4.902;2022-09-13T08:28:58;100878.34;;;18.36;68.12
74232;BME280;62590;52.430;4.902;2022-09-13T08:31:25;100879.97;;;18.45;68.12
74232;BME280;62590;52.430;4.902;2022-09-13T08:33:50;100880.41;;;18.34;68.12
74232;BME280;62590;52.430;4.902;2022-09-13T08:36:16;100873.69;;;18.45;68.12
74232;BME280;62590;52.430;4.902;2022-09-13T08:38:46;100873.75;;;18.36;68.12
74232;BME280;62590;52.430;4.902;2022-09-13T08:44:02;100872.13;;;18.27;68.12
74232;BME280;62590;52.430;4.902;2022-09-13T08:46:34;100869.09;;;18.45;68.12
74232;BME280;62590;52.430;4.902;2022-09-13T08:49:04;100868.34;;;18.66;68.13
74232;BME280;62590;52.430;4.902;2022-09-13T08:51:41;100881.84;;;18.45;68.13
74232;BME280;62590;52.430;4.902;2022-09-13T08:54:13;100870.28;;;18.28;68.11
74232;BME280;62590;52.430;4.902;2022-09-13T08:57:02;100870.22;;;18.51;68.13
74232;BME280;62590;52.430;4.902;2022-09-13T09:07:39;100866.09;;;18.40;68.12
74232;BME280;62590;52.430;4.902;2022-09-13T09:10:14;100870.53;;;18.18;68.09
74232;BME280;62590;52.430;4.902;2022-09-13T09:12:42;100876.75;;;18.27;68.11
74232;BME280;62590;52.430;4.902;2022-09-13T09:15:32;100879.13;;;18.45;68.12
74232;BME280;62590;52.430;4.902;2022-09-13T09:18:12;100878.31;;;18.44;68.13
74232;BME280;62590;52.430;4.902;2022-09-13T09:20:45;100881.94;;;18.66;68.14
74232;BME280;62590;52.430;4.902;2022-09-13T09:23:23;100877.72;;;18.63;68.14
74232;BME280;62590;52.430;4.902;2022-09-13T09:25:56;100882.34;;;18.63;68.13
74232;BME280;62590;52.430;4.902;2022-09-13T09:28:22;100888.22;;;18.66;68.13
74232;BME280;62590;52.430;4.902;2022-09-13T09:38:52;100883.25;;;18.70;68.14
74232;BME280;62590;52.430;4.902;2022-09-13T09:41:26;100885.50;;;18.81;68.15
74232;BME280;62590;52.430;4.902;2022-09-13T09:43:58;100882.59;;;18.68;68.14
74232;BME280;62590;52.430;4.902;2022-09-13T09:46:29;100889.84;;;18.46;68.11
74232;BME280;62590;52.430;4.902;2022-09-13T09:49:04;100883.81;;;18.80;68.14
74232;BME280;62590;52.430;4.902;2022-09-13T09:51:52;100878.72;;;18.91;68.15
74232;BME280;62590;52.430;4.902;2022-09-13T09:54:18;100880.47;;;19.13;68.16
74232;BME280;62590;52.430;4.902;2022-09-13T09:56:52;100881.97;;;19.16;68.18
74232;BME280;62590;52.430;4.902;2022-09-13T09:59:30;100884.34;;;19.04;68.16
74232;BME280;62590;52.430;4.902;2022-09-13T10:01:56;100877.63;;;18.71;68.14
74232;BME280;62590;52.430;4.902;2022-09-13T10:04:23;100875.34;;;18.89;68.15
74232;BME280;62590;52.430;4.902;2022-09-13T10:06:48;100870.00;;;19.10;68.16
74232;BME280;62590;52.430;4.902;2022-09-13T10:09:19;100875.81;;;19.07;68.17
74232;BME280;62590;52.430;4.902;2022-09-13T10:11:49;100871.19;;;19.22;68.17
74232;BME280;62590;52.430;4.902;2022-09-13T10:17:19;100869.81;;;18.97;68.16
74232;BME280;62590;52.430;4.902;2022-09-13T10:22:39;100866.00;;;19.27;68.17
74232;BME280;62590;52.430;4.902;2022-09-13T10:25:21;100867.09;;;19.69;68.21
74232;BME280;62590;52.430;4.902;2022-09-13T10:27:49;100867.84;;;19.42;68.19
74232;BME280;62590;52.430;4.902;2022-09-13T10:32:55;100856.91;;;19.35;68.18
74232;BME280;62590;52.430;4.902;2022-09-13T10:35:21;100869.75;;;19.62;68.19
74232;BME280;62590;52.430;4.902;2022-09-13T10:37:48;100861.50;;;19.98;68.22
74232;BME280;62590;52.430;4.902;2022-09-13T10:40:30;100863.19;;;19.57;68.20
74232;BME280;62590;52.430;4.902;2022-09-13T10:43:04;100866.38;;;19.81;68.21
74232;BME280;62590;52.430;4.902;2022-09-13T10:45:36;100864.22;;;19.98;68.24
74232;BME280;62590;52.430;4.902;2022-09-13T10:48:09;100854.50;;;19.89;68.22
74232;BME280;62590;52.430;4.902;2022-09-13T10:50:36;100858.91;;;19.90;68.21
74232;BME280;62590;52.430;4.902;2022-09-13T10:53:02;100858.97;;;20.17;68.25
74232;BME280;62590;52.430;4.902;2022-09-13T10:55:30;100859.41;;;20.00;68.22
74232;BME280;62590;52.430;4.902;2022-09-13T11:00:35;100862.22;;;20.06;68.23
74232;BME280;62590;52.430;4.902;2022-09-13T11:22:26;100856.22;;;20.45;68.26
74232;BME280;62590;52.430;4.902;2022-09-13T11:25:25;100853.75;;;20.22;68.24
74232;BME280;62590;52.430;4.902;2022-09-13T11:28:33;100847.50;;;20.63;68.27
74232;BME280;62590;52.430;4.902;2022-09-13T11:39:37;100844.91;;;19.72;68.21
74232;BME280;62590;52.430;4.902;2022-09-13T11:53:23;100819.69;;;21.28;68.31
74232;BME280;62590;52.430;4.902;2022-09-13T11:56:02;100823.31;;;21.48;68.33
74232;BME280;62590;52.430;4.902;2022-09-13T11:58:47;100825.25;;;21.00;68.29
74232;BME280;62590;52.430;4.902;2022-09-13T12:01:19;100827.84;;;20.33;68.25
74232;BME280;62590;52.430;4.902;2022-09-13T12:04:14;100825.81;;;20.89;68.29
74232;BME280;62590;52.430;4.902;2022-09-13T12:07:06;100814.88;;;20.82;68.28
74232;BME280;62590;52.430;4.902;2022-09-13T12:09:46;100814.84;;;21.16;68.30
74232;BME280;62590;52.430;4.902;2022-09-13T12:12:16;100815.44;;;21.18;68.32
74232;BME280;62590;52.430;4.902;2022-09-13T12:14:52;100822.59;;;21.26;68.31
74232;BME280;62590;52.430;4.902;2022-09-13T12:17:36;100824.81;;;20.56;68.26
74232;BME280;62590;52.430;4.902;2022-09-13T12:20:10;100814.53;;;20.51;68.25
74232;BME280;62590;52.430;4.902;2022-09-13T12:22:37;100831.63;;;20.39;68.25
74232;BME280;62590;52.430;4.902;2022-09-13T12:25:10;100814.59;;;20.64;68.26
74232;BME280;62590;52.430;4.902;2022-09-13T12:27:40;100821.25;;;19.93;68.22
74232;BME280;62590;52.430;4.902;2022-09-13T12:30:16;100821.81;;;20.85;68.28
74232;BME280;62590;52.430;4.902;2022-09-13T12:32:43;100835.41;;;20.38;68.25
74232;BME280;62590;52.430;4.902;2022-09-13T12:37:56;100827.25;;;20.44;68.25
74232;BME280;62590;52.430;4.902;2022-09-13T12:48:22;100839.00;;;21.39;68.32
74232;BME280;62590;52.430;4.902;2022-09-13T12:56:56;100831.22;;;21.16;68.31
74232;BME280;62590;52.430;4.902;2022-09-13T12:59:30;100839.59;;;20.74;68.28
74232;BME280;62590;52.430;4.902;2022-09-13T13:02:02;100842.81;;;20.84;68.29
74232;BME280;62590;52.430;4.902;2022-09-13T13:04:33;100834.38;;;21.27;68.31
74232;BME280;62590;52.430;4.902;2022-09-13T13:07:18;100835.16;;;20.67;68.28
74232;BME280;62590;52.430;4.902;2022-09-13T13:09:47;100831.84;;;20.71;68.27
74232;BME280;62590;52.430;4.902;2022-09-13T13:12:36;100826.44;;;21.38;68.32
74232;BME280;62590;52.430;4.902;2022-09-13T13:15:07;100836.66;;;20.35;68.25
74232;BME280;62590;52.430;4.902;2022-09-13T13:17:54;100829.16;;;21.45;68.33
74232;BME280;62590;52.430;4.902;2022-09-13T13:23:34;100823.72;;;21.51;68.34
74232;BME280;62590;52.430;4.902;2022-09-13T13:29:15;100821.84;;;21.71;68.35
74232;BME280;62590;52.430;4.902;2022-09-13T13:34:33;100821.44;;;21.74;68.34
74232;BME280;62590;52.430;4.902;2022-09-13T13:37:02;100827.75;;;22.01;68.36
74232;BME280;62590;52.430;4.902;2022-09-13T13:59:46;100838.97;;;21.19;68.31
74232;BME280;62590;52.430;4.902;2022-09-13T14:02:17;100838.28;;;22.04;68.36
74232;BME280;62590;52.430;4.902;2022-09-13T14:05:02;100846.03;;;21.74;68.34
74232;BME280;62590;52.430;4.902;2022-09-13T14:13:16;100845.69;;;20.70;68.28
74232;BME280;62590;52.430;4.902;2022-09-13T14:16:06;100838.13;;;21.12;68.30
74232;BME280;62590;52.430;4.902;2022-09-13T14:19:07;100843.75;;;21.04;68.29
74232;BME280;62590;52.430;4.902;2022-09-13T14:21:39;100844.31;;;20.93;68.29
74232;BME280;62590;52.430;4.902;2022-09-13T14:24:18;100840.59;;;20.60;68.27
74232;BME280;62590;52.430;4.902;2022-09-13T14:26:46;100841.03;;;20.70;68.28
74232;BME280;62590;52.430;4.902;2022-09-13T14:29:16;100830.78;;;21.26;68.32
74232;BME280;62590;52.430;4.902;2022-09-13T14:31:45;100829.75;;;21.34;68.32
74232;BME280;62590;52.430;4.902;2022-09-13T14:34:49;100830.44;;;21.55;68.32
74232;BME280;62590;52.430;4.902;2022-09-13T14:37:18;100830.03;;;21.52;68.34
74232;BME280;62590;52.430;4.902;2022-09-13T14:40:00;100828.75;;;21.48;68.33
74232;BME280;62590;52.430;4.902;2022-09-13T14:42:37;100827.09;;;21.66;68.33
74232;BME280;62590;52.430;4.902;2022-09-13T14:45:03;100826.47;;;21.77;68.36
74232;BME280;62590;52.430;4.902;2022-09-13T14:47:36;100826.38;;;21.18;68.31
74232;BME280;62590;52.430;4.902;2022-09-13T14:50:18;100828.97;;;21.53;68.33
74232;BME280;62590;52.430;4.902;2022-09-13T14:53:00;100830.03;;;21.52;68.33
74232;BME280;62590;52.430;4.902;2022-09-13T14:55:34;100825.78;;;21.43;68.33
74232;BME280;62590;52.430;4.902;2022-09-13T14:58:05;100823.56;;;21.92;68.36
74232;BME280;62590;52.430;4.902;2022-09-13T15:00:44;100819.38;;;21.96;68.36
74232;BME280;62590;52.430;4.902;2022-09-13T15:03:13;100830.38;;;21.16;68.31
74232;BME280;62590;52.430;4.902;2022-09-13T15:05:40;100823.13;;;22.08;68.37
74232;BME280;62590;52.430;4.902;2022-09-13T15:08:25;100829.00;;;22.25;68.37
74232;BME280;62590;52.430;4.902;2022-09-13T15:10:51;100822.94;;;22.09;68.37
74232;BME280;62590;52.430;4.902;2022-09-13T15:13:17;100827.84;;;22.78;68.41
74232;BME280;62590;52.430;4.902;2022-09-13T15:15:43;100827.97;;;22.32;68.37
74232;BME280;62590;52.430;4.902;2022-09-13T15:25:55;100830.63;;;21.28;68.32
74232;BME280;62590;52.430;4.902;2022-09-13T15:28:28;100828.78;;;21.67;68.34
74232;BME280;62590;52.430;4.902;2022-09-13T15:30:56;100829.44;;;22.22;68.38
74232;BME280;62590;52.430;4.902;2022-09-13T15:33:28;100819.53;;;21.68;68.34
74232;BME280;62590;52.430;4.902;2022-09-13T15:36:27;100821.75;;;21.12;68.31
74232;BME280;62590;52.430;4.902;2022-09-13T15:41:34;100829.97;;;20.78;68.28
74232;BME280;62590;52.430;4.902;2022-09-13T15:44:01;100822.25;;;21.75;68.34
74232;BME280;62590;52.430;4.902;2022-09-13T15:46:27;100809.56;;;21.08;68.31
74232;BME280;62590;52.430;4.902;2022-09-13T15:48:58;100820.38;;;21.62;68.34
74232;BME280;62590;52.430;4.902;2022-09-13T15:51:24;100809.47;;;21.82;68.35
74232;BME280;62590;52.430;4.902;2022-09-13T15:53:50;100814.06;;;21.55;68.33
74232;BME280;62590;52.430;4.902;2022-09-13T15:56:19;100812.38;;;21.67;68.35
74232;BME280;62590;52.430;4.902;2022-09-13T15:58:46;100826.44;;;21.51;68.34
74232;BME280;62590;52.430;4.902;2022-09-13T16:01:12;100809.84;;;21.33;68.31
74232;BME280;62590;52.430;4.902;2022-09-13T16:03:38;100819.94;;;20.85;68.29
74232;BME280;62590;52.430;4.902;2022-09-13T16:06:04;100812.25;;;20.61;68.28
74232;BME280;62590;52.430;4.902;2022-09-13T16:08:31;100823.47;;;20.39;68.25
74232;BME280;62590;52.430;4.902;2022-09-13T16:10:57;100815.53;;;20.91;68.29
74232;BME280;62590;52.430;4.902;2022-09-13T16:13:22;100814.72;;;20.97;68.30
74232;BME280;62590;52.430;4.902;2022-09-13T16:15:47;100811.38;;;20.95;68.31
74232;BME280;62590;52.430;4.902;2022-09-13T16:18:14;100812.59;;;20.86;68.28
74232;BME280;62590;52.430;4.902;2022-09-13T16:20:41;100816.53;;;20.36;68.25